sensor_id;sensor_type;location;lat;lon;timestamp;P1;durP1;ratioP1;P2;durP2;ratioP2
2313;SDS011;42279;51.388;7.000;2022-07-29T00:01:41;2.00;;;1.90;;
2313;SDS011;42279;51.388;7.000;2022-07-29T00:04:07;1.97;;;1.87;;
2313;SDS011;42279;51.388;7.000;2022-07-29T00:06:33;1.90;;;1.73;;
2313;SDS011;42279;51.388;7.000;2022-07-29T00:08:59;1.90;;;1.80;;
2313;SDS011;42279;51.388;7.000;2022-07-29T00:11:25;3.97;;;2.03;;
2313;SDS011;42279;51.388;7.000;2022-07-29T00:13:51;2.13;;;1.80;;
2313;SDS011;42279;51.388;7.000;2022-07-29T00:16:27;2.17;;;1.90;;
2313;SDS011;42279;51.388;7.000;2022-07-29T00:18:56;8.13;;;2.20;;
2313;SDS011;42279;51.388;7.000;2022-07-29T00:21:30;2.00;;;1.90;;
2313;SDS011;42279;51.388;7.000;2022-07-29T00:24:06;2.00;;;1.87;;
2313;SDS011;42279;51.388;7.000;2022-07-29T00:26:32;1.43;;;1.43;;
2313;SDS011;42279;51.388;7.000;2022-07-29T00:28:59;3.20;;;1.90;;
2313;SDS011;42279;51.388;7.000;2022-07-29T00:31:25;2.43;;;2.23;;
2313;SDS011;42279;51.388;7.000;2022-07-29T00:33:54;2.70;;;2.60;;
2313;SDS011;42279;51.388;7.000;2022-07-29T00:36:20;2.30;;;2.20;;
2313;SDS011;42279;51.388;7.000;2022-07-29T00:38:47;2.80;;;2.70;;
2313;SDS011;42279;51.388;7.000;2022-07-29T00:41:13;3.40;;;2.80;;
2313;SDS011;42279;51.388;7.000;2022-07-29T00:43:39;4.70;;;4.40;;
2313;SDS011;42279;51.388;7.000;2022-07-29T00:46:16;5.77;;;4.83;;
2313;SDS011;42279;51.388;7.000;2022-07-29T00:48:44;5.60;;;5.30;;
2313;SDS011;42279;51.388;7.000;2022-07-29T00:51:10;7.63;;;6.40;;
2313;SDS011;42279;51.388;7.000;2022-07-29T00:53:36;11.47;;;6.87;;
2313;SDS011;42279;51.388;7.000;2022-07-29T00:56:03;8.57;;;6.90;;
2313;SDS011;42279;51.388;7.000;2022-07-29T00:58:29;11.53;;;7.90;;
2313;SDS011;42279;51.388;7.000;2022-07-29T01:00:58;9.33;;;8.43;;
2313;SDS011;42279;51.388;7.000;2022-07-29T01:03:29;10.97;;;8.90;;
2313;SDS011;42279;51.388;7.000;2022-07-29T01:05:55;9.83;;;8.73;;
2313;SDS011;42279;51.388;7.000;2022-07-29T01:08:21;11.77;;;8.63;;
2313;SDS011;42279;51.388;7.000;2022-07-29T01:10:49;10.00;;;8.97;;
2313;SDS011;42279;51.388;7.000;2022-07-29T01:13:19;15.63;;;9.87;;
2313;SDS011;42279;51.388;7.000;2022-07-29T01:15:47;17.83;;;10.50;;
2313;SDS011;42279;51.388;7.000;2022-07-29T01:18:20;12.57;;;9.00;;
2313;SDS011;42279;51.388;7.000;2022-07-29T01:20:55;11.53;;;8.77;;
2313;SDS011;42279;51.388;7.000;2022-07-29T01:31:35;8.70;;;8.03;;
2313;SDS011;42279;51.388;7.000;2022-07-29T01:34:05;10.50;;;9.40;;
2313;SDS011;42279;51.388;7.000;2022-07-29T01:36:37;9.03;;;8.33;;
2313;SDS011;42279;51.388;7.000;2022-07-29T01:39:17;8.90;;;8.07;;
2313;SDS011;42279;51.388;7.000;2022-07-29T01:41:48;13.30;;;8.67;;
2313;SDS011;42279;51.388;7.000;2022-07-29T01:44:17;10.00;;;9.00;;
2313;SDS011;42279;51.388;7.000;2022-07-29T01:46:48;9.47;;;8.47;;
2313;SDS011;42279;51.388;7.000;2022-07-29T01:49:17;11.80;;;9.73;;
2313;SDS011;42279;51.388;7.000;2022-07-29T01:51:52;10.67;;;9.67;;
2313;SDS011;42279;51.388;7.000;2022-07-29T01:54:26;12.20;;;9.20;;
2313;SDS011;42279;51.388;7.000;2022-07-29T01:56:58;15.70;;;8.90;;
2313;SDS011;42279;51.388;7.000;2022-07-29T01:59:24;11.70;;;8.77;;
2313;SDS011;42279;51.388;7.000;2022-07-29T02:01:53;10.67;;;9.73;;
2313;SDS011;42279;51.388;7.000;2022-07-29T02:04:19;9.27;;;8.37;;
2313;SDS011;42279;51.388;7.000;2022-07-29T02:06:46;9.20;;;8.37;;
2313;SDS011;42279;51.388;7.000;2022-07-29T02:09:16;8.50;;;7.60;;
2313;SDS011;42279;51.388;7.000;2022-07-29T02:11:47;9.20;;;8.27;;
2313;SDS011;42279;51.388;7.000;2022-07-29T02:14:17;11.90;;;8.13;;
2313;SDS011;42279;51.388;7.000;2022-07-29T02:16:44;8.03;;;7.50;;
2313;SDS011;42279;51.388;7.000;2022-07-29T02:19:10;10.43;;;7.00;;
2313;SDS011;42279;51.388;7.000;2022-07-29T02:21:37;7.63;;;6.87;;
2313;SDS011;42279;51.388;7.000;2022-07-29T02:24:04;7.10;;;6.23;;
2313;SDS011;42279;51.388;7.000;2022-07-29T02:26:30;6.20;;;5.70;;
2313;SDS011;42279;51.388;7.000;2022-07-29T02:28:58;7.93;;;6.00;;
2313;SDS011;42279;51.388;7.000;2022-07-29T02:31:25;6.03;;;5.00;;
2313;SDS011;42279;51.388;7.000;2022-07-29T02:33:52;6.33;;;4.80;;
2313;SDS011;42279;51.388;7.000;2022-07-29T02:36:21;7.67;;;5.00;;
2313;SDS011;42279;51.388;7.000;2022-07-29T02:38:47;5.20;;;4.80;;
2313;SDS011;42279;51.388;7.000;2022-07-29T02:41:22;3.80;;;3.60;;
2313;SDS011;42279;51.388;7.000;2022-07-29T02:43:50;4.50;;;4.10;;
2313;SDS011;42279;51.388;7.000;2022-07-29T02:46:18;3.73;;;3.53;;
2313;SDS011;42279;51.388;7.000;2022-07-29T02:48:48;7.30;;;4.27;;
2313;SDS011;42279;51.388;7.000;2022-07-29T02:51:26;3.57;;;3.30;;
2313;SDS011;42279;51.388;7.000;2022-07-29T02:53:54;3.50;;;3.40;;
2313;SDS011;42279;51.388;7.000;2022-07-29T02:56:23;4.63;;;3.53;;
2313;SDS011;42279;51.388;7.000;2022-07-29T02:58:53;4.07;;;3.50;;
2313;SDS011;42279;51.388;7.000;2022-07-29T03:01:21;5.77;;;3.40;;
2313;SDS011;42279;51.388;7.000;2022-07-29T03:03:48;3.50;;;3.20;;
2313;SDS011;42279;51.388;7.000;2022-07-29T03:06:14;3.40;;;3.30;;
2313;SDS011;42279;51.388;7.000;2022-07-29T03:08:41;3.70;;;3.40;;
2313;SDS011;42279;51.388;7.000;2022-07-29T03:11:11;2.87;;;2.77;;
2313;SDS011;42279;51.388;7.000;2022-07-29T03:13:41;3.97;;;3.20;;
2313;SDS011;42279;51.388;7.000;2022-07-29T03:16:07;2.30;;;2.20;;
2313;SDS011;42279;51.388;7.000;2022-07-29T03:18:34;2.93;;;2.53;;
2313;SDS011;42279;51.388;7.000;2022-07-29T03:21:02;2.40;;;2.30;;
2313;SDS011;42279;51.388;7.000;2022-07-29T03:23:34;2.30;;;2.10;;
2313;SDS011;42279;51.388;7.000;2022-07-29T03:26:00;2.50;;;2.30;;
2313;SDS011;42279;51.388;7.000;2022-07-29T03:28:33;3.60;;;2.90;;
2313;SDS011;42279;51.388;7.000;2022-07-29T03:30:59;4.23;;;2.10;;
2313;SDS011;42279;51.388;7.000;2022-07-29T03:33:25;2.70;;;2.17;;
2313;SDS011;42279;51.388;7.000;2022-07-29T03:35:53;1.70;;;1.60;;
2313;SDS011;42279;51.388;7.000;2022-07-29T03:38:22;2.77;;;2.23;;
2313;SDS011;42279;51.388;7.000;2022-07-29T03:43:44;2.23;;;2.03;;
2313;SDS011;42279;51.388;7.000;2022-07-29T03:46:11;3.63;;;2.07;;
2313;SDS011;42279;51.388;7.000;2022-07-29T03:48:39;3.80;;;1.87;;
2313;SDS011;42279;51.388;7.000;2022-07-29T03:51:15;2.30;;;2.30;;
2313;SDS011;42279;51.388;7.000;2022-07-29T03:53:47;2.50;;;2.13;;
2313;SDS011;42279;51.388;7.000;2022-07-29T03:56:15;2.17;;;2.07;;
2313;SDS011;42279;51.388;7.000;2022-07-29T03:58:41;2.13;;;2.00;;
2313;SDS011;42279;51.388;7.000;2022-07-29T04:01:08;2.27;;;2.17;;
2313;SDS011;42279;51.388;7.000;2022-07-29T04:03:34;1.93;;;1.83;;
2313;SDS011;42279;51.388;7.000;2022-07-29T04:06:04;1.70;;;1.70;;
2313;SDS011;42279;51.388;7.000;2022-07-29T04:08:39;3.70;;;1.80;;
2313;SDS011;42279;51.388;7.000;2022-07-29T04:11:05;1.80;;;1.67;;
2313;SDS011;42279;51.388;7.000;2022-07-29T04:13:31;2.23;;;2.03;;
2313;SDS011;42279;51.388;7.000;2022-07-29T04:15:58;2.77;;;2.57;;
2313;SDS011;42279;51.388;7.000;2022-07-29T04:18:24;2.23;;;2.20;;
2313;SDS011;42279;51.388;7.000;2022-07-29T04:20:51;1.90;;;1.90;;
2313;SDS011;42279;51.388;7.000;2022-07-29T04:23:17;2.53;;;1.97;;
2313;SDS011;42279;51.388;7.000;2022-07-29T04:25:49;1.77;;;1.70;;
2313;SDS011;42279;51.388;7.000;2022-07-29T04:28:15;3.60;;;2.30;;
2313;SDS011;42279;51.388;7.000;2022-07-29T04:30:41;1.53;;;1.47;;
2313;SDS011;42279;51.388;7.000;2022-07-29T04:33:08;2.60;;;2.40;;
2313;SDS011;42279;51.388;7.000;2022-07-29T04:35:35;3.37;;;3.17;;
2313;SDS011;42279;51.388;7.000;2022-07-29T04:38:04;5.07;;;2.23;;
2313;SDS011;42279;51.388;7.000;2022-07-29T04:40:37;5.73;;;2.50;;
2313;SDS011;42279;51.388;7.000;2022-07-29T04:43:03;2.00;;;2.00;;
2313;SDS011;42279;51.388;7.000;2022-07-29T04:45:29;2.77;;;2.07;;
2313;SDS011;42279;51.388;7.000;2022-07-29T04:50:31;4.50;;;2.40;;
2313;SDS011;42279;51.388;7.000;2022-07-29T04:53:21;2.00;;;1.90;;
2313;SDS011;42279;51.388;7.000;2022-07-29T04:55:53;1.60;;;1.60;;
2313;SDS011;42279;51.388;7.000;2022-07-29T04:58:24;2.93;;;2.70;;
2313;SDS011;42279;51.388;7.000;2022-07-29T05:00:57;1.60;;;1.60;;
2313;SDS011;42279;51.388;7.000;2022-07-29T05:05:59;3.53;;;2.13;;
2313;SDS011;42279;51.388;7.000;2022-07-29T05:08:25;3.80;;;2.37;;
2313;SDS011;42279;51.388;7.000;2022-07-29T05:10:52;2.17;;;2.00;;
2313;SDS011;42279;51.388;7.000;2022-07-29T05:13:23;6.73;;;6.30;;
2313;SDS011;42279;51.388;7.000;2022-07-29T05:15:53;2.20;;;1.97;;
2313;SDS011;42279;51.388;7.000;2022-07-29T05:18:19;7.13;;;2.70;;
2313;SDS011;42279;51.388;7.000;2022-07-29T05:20:47;11.07;;;2.93;;
2313;SDS011;42279;51.388;7.000;2022-07-29T05:23:18;7.83;;;2.97;;
2313;SDS011;42279;51.388;7.000;2022-07-29T05:25:45;2.53;;;2.40;;
2313;SDS011;42279;51.388;7.000;2022-07-29T05:28:13;4.97;;;2.80;;
2313;SDS011;42279;51.388;7.000;2022-07-29T05:30:56;8.30;;;2.90;;
2313;SDS011;42279;51.388;7.000;2022-07-29T05:33:28;3.27;;;3.03;;
2313;SDS011;42279;51.388;7.000;2022-07-29T05:36:01;2.50;;;2.20;;
2313;SDS011;42279;51.388;7.000;2022-07-29T05:38:35;5.50;;;3.10;;
2313;SDS011;42279;51.388;7.000;2022-07-29T05:41:06;8.53;;;2.83;;
2313;SDS011;42279;51.388;7.000;2022-07-29T05:46:18;2.67;;;2.40;;
2313;SDS011;42279;51.388;7.000;2022-07-29T05:48:45;3.70;;;2.87;;
2313;SDS011;42279;51.388;7.000;2022-07-29T05:51:11;5.80;;;2.40;;
2313;SDS011;42279;51.388;7.000;2022-07-29T05:53:41;3.07;;;2.77;;
2313;SDS011;42279;51.388;7.000;2022-07-29T05:56:09;3.27;;;3.00;;
2313;SDS011;42279;51.388;7.000;2022-07-29T06:08:58;3.40;;;3.10;;
2313;SDS011;42279;51.388;7.000;2022-07-29T06:11:33;3.50;;;2.90;;
2313;SDS011;42279;51.388;7.000;2022-07-29T06:14:05;2.60;;;2.50;;
2313;SDS011;42279;51.388;7.000;2022-07-29T06:16:34;2.60;;;2.40;;
2313;SDS011;42279;51.388;7.000;2022-07-29T06:19:00;2.53;;;2.47;;
2313;SDS011;42279;51.388;7.000;2022-07-29T06:21:32;7.50;;;3.00;;
2313;SDS011;42279;51.388;7.000;2022-07-29T06:24:07;4.17;;;2.63;;
2313;SDS011;42279;51.388;7.000;2022-07-29T06:26:34;2.73;;;2.17;;
2313;SDS011;42279;51.388;7.000;2022-07-29T06:29:06;3.43;;;2.40;;
2313;SDS011;42279;51.388;7.000;2022-07-29T06:31:35;8.47;;;3.13;;
2313;SDS011;42279;51.388;7.000;2022-07-29T06:34:04;5.20;;;2.80;;
2313;SDS011;42279;51.388;7.000;2022-07-29T06:36:39;4.77;;;3.30;;
2313;SDS011;42279;51.388;7.000;2022-07-29T06:39:08;4.50;;;2.73;;
2313;SDS011;42279;51.388;7.000;2022-07-29T06:41:35;4.73;;;2.90;;
2313;SDS011;42279;51.388;7.000;2022-07-29T06:44:04;4.73;;;3.50;;
2313;SDS011;42279;51.388;7.000;2022-07-29T06:49:23;3.53;;;3.23;;
2313;SDS011;42279;51.388;7.000;2022-07-29T06:51:58;3.63;;;3.20;;
2313;SDS011;42279;51.388;7.000;2022-07-29T06:54:27;4.57;;;3.60;;
2313;SDS011;42279;51.388;7.000;2022-07-29T06:56:58;4.13;;;3.93;;
2313;SDS011;42279;51.388;7.000;2022-07-29T06:59:26;3.60;;;3.40;;
2313;SDS011;42279;51.388;7.000;2022-07-29T07:01:59;3.00;;;2.80;;
2313;SDS011;42279;51.388;7.000;2022-07-29T07:04:27;3.77;;;3.33;;
2313;SDS011;42279;51.388;7.000;2022-07-29T07:06:56;2.90;;;2.80;;
2313;SDS011;42279;51.388;7.000;2022-07-29T07:09:24;6.40;;;3.40;;
2313;SDS011;42279;51.388;7.000;2022-07-29T07:11:50;4.23;;;2.60;;
2313;SDS011;42279;51.388;7.000;2022-07-29T07:14:16;5.60;;;2.90;;
2313;SDS011;42279;51.388;7.000;2022-07-29T07:16:42;2.93;;;2.73;;
2313;SDS011;42279;51.388;7.000;2022-07-29T07:19:08;3.70;;;3.40;;
2313;SDS011;42279;51.388;7.000;2022-07-29T07:21:34;2.43;;;2.33;;
2313;SDS011;42279;51.388;7.000;2022-07-29T07:24:00;3.17;;;3.03;;
2313;SDS011;42279;51.388;7.000;2022-07-29T07:26:27;3.27;;;2.50;;
2313;SDS011;42279;51.388;7.000;2022-07-29T07:28:53;3.93;;;3.63;;
2313;SDS011;42279;51.388;7.000;2022-07-29T07:31:19;4.03;;;3.83;;
2313;SDS011;42279;51.388;7.000;2022-07-29T07:33:48;8.77;;;2.90;;
2313;SDS011;42279;51.388;7.000;2022-07-29T07:36:14;5.83;;;3.10;;
2313;SDS011;42279;51.388;7.000;2022-07-29T07:38:40;3.67;;;3.17;;
2313;SDS011;42279;51.388;7.000;2022-07-29T07:41:09;2.40;;;2.40;;
2313;SDS011;42279;51.388;7.000;2022-07-29T07:43:37;3.07;;;2.77;;
2313;SDS011;42279;51.388;7.000;2022-07-29T07:46:03;8.03;;;2.87;;
2313;SDS011;42279;51.388;7.000;2022-07-29T07:48:30;2.47;;;2.37;;
2313;SDS011;42279;51.388;7.000;2022-07-29T07:51:00;4.07;;;2.97;;
2313;SDS011;42279;51.388;7.000;2022-07-29T07:53:29;5.70;;;3.13;;
2313;SDS011;42279;51.388;7.000;2022-07-29T07:56:02;2.83;;;2.57;;
2313;SDS011;42279;51.388;7.000;2022-07-29T07:58:39;4.00;;;3.70;;
2313;SDS011;42279;51.388;7.000;2022-07-29T08:01:09;3.60;;;3.40;;
2313;SDS011;42279;51.388;7.000;2022-07-29T08:03:41;3.47;;;2.80;;
2313;SDS011;42279;51.388;7.000;2022-07-29T08:08:59;4.00;;;2.87;;
2313;SDS011;42279;51.388;7.000;2022-07-29T08:11:25;4.57;;;2.90;;
2313;SDS011;42279;51.388;7.000;2022-07-29T08:13:52;3.40;;;3.27;;
2313;SDS011;42279;51.388;7.000;2022-07-29T08:16:19;3.73;;;3.53;;
2313;SDS011;42279;51.388;7.000;2022-07-29T08:18:45;3.30;;;3.20;;
2313;SDS011;42279;51.388;7.000;2022-07-29T08:21:12;3.70;;;3.37;;
2313;SDS011;42279;51.388;7.000;2022-07-29T08:23:38;3.53;;;3.20;;
2313;SDS011;42279;51.388;7.000;2022-07-29T08:26:10;3.50;;;3.30;;
2313;SDS011;42279;51.388;7.000;2022-07-29T08:28:37;3.90;;;3.60;;
2313;SDS011;42279;51.388;7.000;2022-07-29T08:31:03;5.30;;;3.70;;
2313;SDS011;42279;51.388;7.000;2022-07-29T08:33:29;5.00;;;4.60;;
2313;SDS011;42279;51.388;7.000;2022-07-29T08:35:59;4.57;;;3.43;;
2313;SDS011;42279;51.388;7.000;2022-07-29T08:38:25;4.47;;;3.43;;
2313;SDS011;42279;51.388;7.000;2022-07-29T08:40:52;3.97;;;3.67;;
2313;SDS011;42279;51.388;7.000;2022-07-29T08:43:20;4.03;;;3.60;;
2313;SDS011;42279;51.388;7.000;2022-07-29T08:45:48;4.70;;;4.37;;
2313;SDS011;42279;51.388;7.000;2022-07-29T08:48:16;3.63;;;3.33;;
2313;SDS011;42279;51.388;7.000;2022-07-29T08:50:42;5.70;;;3.97;;
2313;SDS011;42279;51.388;7.000;2022-07-29T08:53:10;6.53;;;3.90;;
2313;SDS011;42279;51.388;7.000;2022-07-29T08:55:39;3.90;;;3.70;;
2313;SDS011;42279;51.388;7.000;2022-07-29T08:58:06;4.20;;;3.90;;
2313;SDS011;42279;51.388;7.000;2022-07-29T09:00:32;4.93;;;4.53;;
2313;SDS011;42279;51.388;7.000;2022-07-29T09:03:00;4.40;;;4.10;;
2313;SDS011;42279;51.388;7.000;2022-07-29T09:05:26;6.00;;;4.87;;
2313;SDS011;42279;51.388;7.000;2022-07-29T09:07:53;5.00;;;4.60;;
2313;SDS011;42279;51.388;7.000;2022-07-29T09:10:19;4.80;;;4.37;;
2313;SDS011;42279;51.388;7.000;2022-07-29T09:12:45;5.57;;;5.07;;
2313;SDS011;42279;51.388;7.000;2022-07-29T09:15:12;5.43;;;4.93;;
2313;SDS011;42279;51.388;7.000;2022-07-29T09:17:48;6.57;;;6.07;;
2313;SDS011;42279;51.388;7.000;2022-07-29T09:20:16;10.03;;;7.03;;
2313;SDS011;42279;51.388;7.000;2022-07-29T09:22:42;9.47;;;5.93;;
2313;SDS011;42279;51.388;7.000;2022-07-29T09:25:08;9.30;;;7.87;;
2313;SDS011;42279;51.388;7.000;2022-07-29T09:27:37;7.53;;;6.40;;
2313;SDS011;42279;51.388;7.000;2022-07-29T09:32:32;7.53;;;6.50;;
2313;SDS011;42279;51.388;7.000;2022-07-29T09:37:43;13.20;;;9.13;;
2313;SDS011;42279;51.388;7.000;2022-07-29T09:40:11;10.18;;;6.90;;
2313;SDS011;42279;51.388;7.000;2022-07-29T09:42:37;7.50;;;6.80;;
2313;SDS011;42279;51.388;7.000;2022-07-29T09:45:03;8.30;;;7.50;;
2313;SDS011;42279;51.388;7.000;2022-07-29T09:47:42;7.43;;;6.43;;
2313;SDS011;42279;51.388;7.000;2022-07-29T09:50:10;13.73;;;7.20;;
2313;SDS011;42279;51.388;7.000;2022-07-29T09:52:45;7.37;;;6.67;;
2313;SDS011;42279;51.388;7.000;2022-07-29T09:55:13;10.77;;;7.80;;
2313;SDS011;42279;51.388;7.000;2022-07-29T09:57:39;11.70;;;8.17;;
2313;SDS011;42279;51.388;7.000;2022-07-29T10:02:32;34.77;;;23.17;;
2313;SDS011;42279;51.388;7.000;2022-07-29T10:04:59;10.03;;;6.23;;
2313;SDS011;42279;51.388;7.000;2022-07-29T10:07:25;9.83;;;6.73;;
2313;SDS011;42279;51.388;7.000;2022-07-29T10:09:52;8.03;;;6.47;;
2313;SDS011;42279;51.388;7.000;2022-07-29T10:12:19;8.53;;;6.90;;
2313;SDS011;42279;51.388;7.000;2022-07-29T10:14:45;9.40;;;7.10;;
2313;SDS011;42279;51.388;7.000;2022-07-29T10:17:12;7.00;;;6.37;;
2313;SDS011;42279;51.388;7.000;2022-07-29T10:19:44;7.70;;;7.10;;
2313;SDS011;42279;51.388;7.000;2022-07-29T10:22:10;6.20;;;5.93;;
2313;SDS011;42279;51.388;7.000;2022-07-29T10:24:40;6.97;;;6.57;;
2313;SDS011;42279;51.388;7.000;2022-07-29T10:27:22;6.93;;;6.63;;
2313;SDS011;42279;51.388;7.000;2022-07-29T10:29:49;7.17;;;6.67;;
2313;SDS011;42279;51.388;7.000;2022-07-29T10:40:26;6.70;;;6.17;;
2313;SDS011;42279;51.388;7.000;2022-07-29T10:45:47;6.57;;;6.20;;
2313;SDS011;42279;51.388;7.000;2022-07-29T10:48:17;6.53;;;6.20;;
2313;SDS011;42279;51.388;7.000;2022-07-29T11:02:56;6.10;;;5.67;;
2313;SDS011;42279;51.388;7.000;2022-07-29T11:07:22;6.50;;;6.00;;
2313;SDS011;42279;51.388;7.000;2022-07-29T11:15:12;9.60;;;6.60;;
2313;SDS011;42279;51.388;7.000;2022-07-29T11:31:51;8.90;;;5.88;;
2313;SDS011;42279;51.388;7.000;2022-07-29T11:53:48;6.13;;;5.73;;
2313;SDS011;42279;51.388;7.000;2022-07-29T11:59:04;5.10;;;4.90;;
2313;SDS011;42279;51.388;7.000;2022-07-29T12:01:52;5.30;;;4.90;;
2313;SDS011;42279;51.388;7.000;2022-07-29T12:12:12;4.87;;;4.50;;
2313;SDS011;42279;51.388;7.000;2022-07-29T12:20:26;4.90;;;4.50;;
2313;SDS011;42279;51.388;7.000;2022-07-29T12:28:44;4.00;;;3.80;;
2313;SDS011;42279;51.388;7.000;2022-07-29T12:31:13;4.20;;;3.90;;
2313;SDS011;42279;51.388;7.000;2022-07-29T12:36:15;3.43;;;3.33;;
2313;SDS011;42279;51.388;7.000;2022-07-29T12:38:44;8.10;;;4.90;;
2313;SDS011;42279;51.388;7.000;2022-07-29T12:41:13;4.20;;;3.90;;
2313;SDS011;42279;51.388;7.000;2022-07-29T12:43:54;4.20;;;3.90;;
2313;SDS011;42279;51.388;7.000;2022-07-29T12:46:20;4.17;;;3.73;;
2313;SDS011;42279;51.388;7.000;2022-07-29T12:48:50;5.27;;;4.37;;
2313;SDS011;42279;51.388;7.000;2022-07-29T12:51:28;4.03;;;3.73;;
2313;SDS011;42279;51.388;7.000;2022-07-29T12:54:14;4.50;;;4.30;;
2313;SDS011;42279;51.388;7.000;2022-07-29T12:56:40;4.30;;;4.07;;
2313;SDS011;42279;51.388;7.000;2022-07-29T13:01:46;3.77;;;3.67;;
2313;SDS011;42279;51.388;7.000;2022-07-29T13:04:30;6.27;;;5.67;;
2313;SDS011;42279;51.388;7.000;2022-07-29T13:07:00;4.90;;;4.50;;
2313;SDS011;42279;51.388;7.000;2022-07-29T13:09:36;8.77;;;4.57;;
2313;SDS011;42279;51.388;7.000;2022-07-29T13:12:06;4.83;;;4.50;;
2313;SDS011;42279;51.388;7.000;2022-07-29T13:14:45;4.20;;;3.90;;
2313;SDS011;42279;51.388;7.000;2022-07-29T13:17:21;4.30;;;4.00;;
2313;SDS011;42279;51.388;7.000;2022-07-29T13:19:52;6.30;;;5.70;;
2313;SDS011;42279;51.388;7.000;2022-07-29T13:22:23;4.10;;;3.90;;
2313;SDS011;42279;51.388;7.000;2022-07-29T13:24:53;4.20;;;3.90;;
2313;SDS011;42279;51.388;7.000;2022-07-29T13:27:24;5.30;;;5.10;;
2313;SDS011;42279;51.388;7.000;2022-07-29T13:29:53;4.90;;;4.50;;
2313;SDS011;42279;51.388;7.000;2022-07-29T13:32:25;6.27;;;4.93;;
2313;SDS011;42279;51.388;7.000;2022-07-29T13:35:01;7.03;;;4.33;;
2313;SDS011;42279;51.388;7.000;2022-07-29T13:37:45;4.67;;;4.37;;
2313;SDS011;42279;51.388;7.000;2022-07-29T13:43:08;5.57;;;5.20;;
2313;SDS011;42279;51.388;7.000;2022-07-29T13:45:37;4.40;;;4.10;;
2313;SDS011;42279;51.388;7.000;2022-07-29T13:48:09;4.57;;;4.27;;
2313;SDS011;42279;51.388;7.000;2022-07-29T13:50:39;5.83;;;4.03;;
2313;SDS011;42279;51.388;7.000;2022-07-29T13:53:07;9.47;;;4.10;;
2313;SDS011;42279;51.388;7.000;2022-07-29T13:55:34;5.70;;;4.30;;
2313;SDS011;42279;51.388;7.000;2022-07-29T13:58:00;4.80;;;4.40;;
2313;SDS011;42279;51.388;7.000;2022-07-29T14:00:33;4.77;;;4.43;;
2313;SDS011;42279;51.388;7.000;2022-07-29T14:03:11;4.40;;;4.10;;
2313;SDS011;42279;51.388;7.000;2022-07-29T14:05:37;7.70;;;4.00;;
2313;SDS011;42279;51.388;7.000;2022-07-29T14:08:03;4.00;;;3.60;;
2313;SDS011;42279;51.388;7.000;2022-07-29T14:10:30;3.73;;;3.63;;
2313;SDS011;42279;51.388;7.000;2022-07-29T14:12:56;4.00;;;3.80;;
2313;SDS011;42279;51.388;7.000;2022-07-29T14:15:22;8.10;;;3.73;;
2313;SDS011;42279;51.388;7.000;2022-07-29T14:17:55;8.80;;;4.60;;
2313;SDS011;42279;51.388;7.000;2022-07-29T14:20:22;4.33;;;3.87;;
2313;SDS011;42279;51.388;7.000;2022-07-29T14:22:54;4.20;;;3.90;;
2313;SDS011;42279;51.388;7.000;2022-07-29T14:25:27;3.93;;;3.83;;
2313;SDS011;42279;51.388;7.000;2022-07-29T14:30:51;5.37;;;4.93;;
2313;SDS011;42279;51.388;7.000;2022-07-29T14:36:19;5.13;;;4.83;;
2313;SDS011;42279;51.388;7.000;2022-07-29T14:39:00;4.50;;;4.00;;
2313;SDS011;42279;51.388;7.000;2022-07-29T14:41:35;4.10;;;4.00;;
2313;SDS011;42279;51.388;7.000;2022-07-29T14:44:04;4.37;;;4.17;;
2313;SDS011;42279;51.388;7.000;2022-07-29T14:46:30;4.10;;;3.90;;
2313;SDS011;42279;51.388;7.000;2022-07-29T14:48:56;4.27;;;3.93;;
2313;SDS011;42279;51.388;7.000;2022-07-29T14:51:22;4.77;;;3.90;;
2313;SDS011;42279;51.388;7.000;2022-07-29T14:53:55;4.40;;;4.20;;
2313;SDS011;42279;51.388;7.000;2022-07-29T14:56:24;4.30;;;4.10;;
2313;SDS011;42279;51.388;7.000;2022-07-29T14:58:50;5.93;;;4.27;;
2313;SDS011;42279;51.388;7.000;2022-07-29T15:01:16;4.63;;;4.57;;
2313;SDS011;42279;51.388;7.000;2022-07-29T15:03:51;6.47;;;4.30;;
2313;SDS011;42279;51.388;7.000;2022-07-29T15:06:33;4.70;;;4.50;;
2313;SDS011;42279;51.388;7.000;2022-07-29T15:09:10;4.33;;;4.20;;
2313;SDS011;42279;51.388;7.000;2022-07-29T15:11:36;4.43;;;4.17;;
2313;SDS011;42279;51.388;7.000;2022-07-29T15:14:03;4.57;;;4.47;;
2313;SDS011;42279;51.388;7.000;2022-07-29T15:16:29;5.10;;;4.70;;
2313;SDS011;42279;51.388;7.000;2022-07-29T15:18:55;6.93;;;6.27;;
2313;SDS011;42279;51.388;7.000;2022-07-29T15:21:22;5.67;;;5.30;;
2313;SDS011;42279;51.388;7.000;2022-07-29T15:23:53;5.07;;;4.67;;
2313;SDS011;42279;51.388;7.000;2022-07-29T15:26:22;4.63;;;4.33;;
2313;SDS011;42279;51.388;7.000;2022-07-29T15:28:49;5.23;;;4.83;;
2313;SDS011;42279;51.388;7.000;2022-07-29T15:31:20;6.13;;;5.10;;
2313;SDS011;42279;51.388;7.000;2022-07-29T15:33:46;4.60;;;3.93;;
2313;SDS011;42279;51.388;7.000;2022-07-29T15:36:16;5.10;;;4.80;;
2313;SDS011;42279;51.388;7.000;2022-07-29T15:38:48;5.13;;;4.83;;
2313;SDS011;42279;51.388;7.000;2022-07-29T15:41:27;5.13;;;4.60;;
2313;SDS011;42279;51.388;7.000;2022-07-29T15:44:14;4.10;;;4.00;;
2313;SDS011;42279;51.388;7.000;2022-07-29T15:46:41;4.87;;;4.67;;
2313;SDS011;42279;51.388;7.000;2022-07-29T15:49:30;6.40;;;5.07;;
2313;SDS011;42279;51.388;7.000;2022-07-29T15:52:15;5.33;;;4.97;;
2313;SDS011;42279;51.388;7.000;2022-07-29T15:54:44;4.87;;;4.57;;
2313;SDS011;42279;51.388;7.000;2022-07-29T15:57:20;5.20;;;4.90;;
2313;SDS011;42279;51.388;7.000;2022-07-29T15:59:46;5.03;;;4.73;;
2313;SDS011;42279;51.388;7.000;2022-07-29T16:02:33;3.83;;;3.70;;
2313;SDS011;42279;51.388;7.000;2022-07-29T16:05:05;4.97;;;4.60;;
2313;SDS011;42279;51.388;7.000;2022-07-29T16:07:31;4.67;;;4.50;;
2313;SDS011;42279;51.388;7.000;2022-07-29T16:09:57;4.97;;;4.67;;
2313;SDS011;42279;51.388;7.000;2022-07-29T16:12:26;5.13;;;4.70;;
2313;SDS011;42279;51.388;7.000;2022-07-29T16:14:52;4.40;;;4.30;;
2313;SDS011;42279;51.388;7.000;2022-07-29T16:17:18;6.80;;;4.70;;
2313;SDS011;42279;51.388;7.000;2022-07-29T16:19:44;5.40;;;5.20;;
2313;SDS011;42279;51.388;7.000;2022-07-29T16:22:11;10.77;;;4.67;;
2313;SDS011;42279;51.388;7.000;2022-07-29T16:24:37;4.67;;;4.47;;
2313;SDS011;42279;51.388;7.000;2022-07-29T16:27:03;5.07;;;4.70;;
2313;SDS011;42279;51.388;7.000;2022-07-29T16:29:29;4.33;;;4.13;;
2313;SDS011;42279;51.388;7.000;2022-07-29T16:31:55;4.53;;;4.10;;
2313;SDS011;42279;51.388;7.000;2022-07-29T16:34:24;5.07;;;4.77;;
2313;SDS011;42279;51.388;7.000;2022-07-29T16:36:50;4.40;;;4.00;;
2313;SDS011;42279;51.388;7.000;2022-07-29T16:39:16;5.60;;;5.10;;
2313;SDS011;42279;51.388;7.000;2022-07-29T16:41:42;8.40;;;5.23;;
2313;SDS011;42279;51.388;7.000;2022-07-29T16:44:09;6.10;;;5.50;;
2313;SDS011;42279;51.388;7.000;2022-07-29T16:46:34;5.03;;;4.63;;
2313;SDS011;42279;51.388;7.000;2022-07-29T16:49:01;4.87;;;4.70;;
2313;SDS011;42279;51.388;7.000;2022-07-29T16:51:28;5.53;;;5.13;;
2313;SDS011;42279;51.388;7.000;2022-07-29T16:53:54;5.17;;;4.73;;
2313;SDS011;42279;51.388;7.000;2022-07-29T16:56:20;5.07;;;4.70;;
2313;SDS011;42279;51.388;7.000;2022-07-29T16:58:46;4.30;;;4.20;;
2313;SDS011;42279;51.388;7.000;2022-07-29T17:01:12;5.53;;;4.43;;
2313;SDS011;42279;51.388;7.000;2022-07-29T17:03:38;4.17;;;3.87;;
2313;SDS011;42279;51.388;7.000;2022-07-29T17:06:24;17.70;;;15.93;;
2313;SDS011;42279;51.388;7.000;2022-07-29T17:08:50;4.57;;;4.17;;
2313;SDS011;42279;51.388;7.000;2022-07-29T17:11:19;4.57;;;4.27;;
2313;SDS011;42279;51.388;7.000;2022-07-29T17:13:45;4.00;;;3.70;;
2313;SDS011;42279;51.388;7.000;2022-07-29T17:16:11;4.93;;;4.47;;
2313;SDS011;42279;51.388;7.000;2022-07-29T17:18:37;4.60;;;4.40;;
2313;SDS011;42279;51.388;7.000;2022-07-29T17:21:03;4.17;;;3.87;;
2313;SDS011;42279;51.388;7.000;2022-07-29T17:23:29;3.67;;;3.47;;
2313;SDS011;42279;51.388;7.000;2022-07-29T17:25:55;7.27;;;6.77;;
2313;SDS011;42279;51.388;7.000;2022-07-29T17:28:21;4.70;;;4.33;;
2313;SDS011;42279;51.388;7.000;2022-07-29T17:30:48;4.20;;;3.80;;
2313;SDS011;42279;51.388;7.000;2022-07-29T17:33:17;4.27;;;4.07;;
2313;SDS011;42279;51.388;7.000;2022-07-29T17:35:47;3.30;;;3.20;;